Flight Track Log - Related Links

Times and Time Zones

All times are in EST time to prevent confusion due to time zone crossing. See the N670MW flight status page for this flight to view local times or setup timezone preferences in your user account.

Time Position Orientation Groundspeed Altitude Reporting Facility
EST Latitude Longitude Course Direction KTS MPH feet Rate Location/Type
Thu 08:27:09 PM 45.4578 -122.8258 133° Southeast 278 320 4,000  Level Seattle Center
Thu 08:27:15 PM 45.4603 -122.8294 315° West 224 258 4,000  Level Seattle Center
Thu 08:28:16 PM 45.4117 -122.7450 129° Southeast 263 303 4,000 1,211 Level Seattle Center
Thu 08:29:00 PM 45.8174 -121.8576 68° East  Level Estimated
Thu 08:29:04 PM 45.4389 -122.6550 67° East 298 343 6,200  Level Seattle Center
Thu 08:29:17 PM 45.4433 -122.6433 61° Northeast 294 338 6,500 3,243 Climbing Seattle Center
Thu 08:30:00 PM 45.8560 -121.7006 71° East  Level Estimated
Thu 08:30:18 PM 45.4931 -122.5489 53° Northeast 298 343 10,200  Level Seattle Center
Thu 08:31:19 PM 45.5233 -122.4308 70° East 318 366 12,700 2,361 Climbing Seattle Center
Thu 08:32:20 PM 45.5644 -122.2722 70° East 355 409 15,000 2,164 Climbing Seattle Center
Thu 08:33:21 PM 45.6011 -122.1322 69° East 373 429 17,100 2,066 Climbing Seattle Center
Thu 08:34:22 PM 45.6364 -121.9889 71° East 382 440 19,200 2,164 Climbing Seattle Center
Thu 08:35:23 PM 45.6761 -121.8378 69° East 389 448 21,500 2,164 Climbing Seattle Center
Thu 08:36:24 PM 45.7128 -121.6889 71° East 394 453 23,600 2,115 Climbing Seattle Center
Thu 08:37:25 PM 45.7503 -121.5397 70° East 399 459 25,800 2,066 Climbing Seattle Center
Thu 08:38:26 PM 45.7881 -121.3850 71° East 409 471 27,800 1,869 Climbing Seattle Center
Thu 08:39:27 PM 45.8264 -121.2292 71° East 415 478 29,600 2,016 Climbing Seattle Center
Thu 08:40:28 PM 45.8653 -121.0764 70° East 409 471 31,900 1,820 Climbing Seattle Center
Thu 08:41:29 PM 45.9025 -120.9194 71° East 414 476 33,300 1,672 Climbing Seattle Center
Thu 08:42:30 PM 45.9403 -120.7664 70° East 408 470 35,300 1,820 Climbing Seattle Center
Thu 08:43:31 PM 45.9758 -120.6169 71° East 398 458 37,000 1,328 Climbing Seattle Center
Thu 08:44:32 PM 46.0114 -120.4669 71° East 397 457 38,000 984 Climbing Seattle Center
Thu 08:45:33 PM 46.0489 -120.3139 71° East 405 466 39,000 1,041 Climbing Seattle Center
Thu 08:46:33 PM 46.0853 -120.1589 71° East 409 471 40,100 992 Climbing Seattle Center
Thu 08:47:34 PM 46.1208 -120.0039 72° East 407 468 41,000 443 Climbing Seattle Center
Thu 08:48:35 PM 46.1569 -119.8447 72° East 416 479 41,000  Level Seattle Center
Thu 08:49:37 PM 46.2053 -119.6431 71° East 441 507 41,000  Level Seattle Center
Thu 08:50:37 PM 46.2442 -119.4664 72° East 460 529 41,000  Level Seattle Center
Thu 08:51:38 PM 46.2844 -119.2889 72° East 465 535 41,000  Level Seattle Center
Thu 08:52:39 PM 46.3250 -119.1136 71° East 467 537 41,000  Level Seattle Center
Thu 08:53:40 PM 46.3656 -118.9347 72° East 469 540 41,000  Level Seattle Center
Thu 08:54:41 PM 46.4022 -118.7700 72° East 460 529 41,000  Level Seattle Center
Thu 08:55:42 PM 46.4414 -118.5978 72° East 456 525 41,000  Level Seattle Center
Thu 08:56:43 PM 46.4783 -118.4219 73° East 458 527 41,000  Level Seattle Center
Thu 08:57:44 PM 46.5169 -118.2492 72° East 456 525 41,000  Level Seattle Center
Thu 08:58:44 PM 46.5544 -118.0722 73° East 461 531 41,000  Level Seattle Center
Thu 08:59:45 PM 46.5992 -117.8633 73° East 457 526 41,000  Level Seattle Center
Thu 09:00:46 PM 46.6353 -117.6872 73° East 457 526 41,000  Level Seattle Center
Thu 09:01:47 PM 46.6719 -117.5108 73° East 459 528 41,000  Level Seattle Center
Thu 09:02:48 PM 46.7092 -117.3358 73° East 457 526 41,000  Level Seattle Center
Thu 09:03:49 PM 46.7453 -117.1539 74° East 467 537 41,000  Level Seattle Center
Thu 09:04:50 PM 46.7808 -116.9764 74° East 462 532 41,000  Level Seattle Center
Thu 09:05:51 PM 46.8172 -116.7961 74° East 467 537 41,000  Level Seattle Center
Thu 09:06:52 PM 46.8531 -116.6197 73° East 460 529 41,000  Level Seattle Center
Thu 09:07:53 PM 46.8872 -116.4422 74° East 458 527 41,000  Level Seattle Center
Thu 09:08:53 PM 46.9222 -116.2633 74° East 459 528 41,000  Level Seattle Center
Thu 09:09:54 PM 46.9569 -116.0861 74° East 457 526 41,000  Level Seattle Center
Thu 09:10:55 PM 46.9969 -115.8764 74° East 452 520 41,000  Level Seattle Center
Thu 09:11:56 PM 47.0297 -115.7000 75° East 452 520 41,000  Level Seattle Center
Thu 09:12:31 PM 47.0489 -115.6064 73° East 450 518 41,000  Level Salt Lake Center
Thu 09:13:33 PM 47.0831 -115.4264 74° East 456 525 41,000  Level Salt Lake Center
Thu 09:14:34 PM 47.1164 -115.2464 75° East 459 528 41,000  Level Salt Lake Center
Thu 09:15:36 PM 47.1475 -115.0700 75° East 451 519 41,000  Level Salt Lake Center
Thu 09:16:38 PM 47.1792 -114.8933 75° East 450 518 41,000  Level Salt Lake Center
Thu 09:17:39 PM 47.2181 -114.6794 75° East 453 521 41,000  Level Salt Lake Center
Thu 09:18:41 PM 47.2497 -114.5008 75° East 455 524 41,000  Level Salt Lake Center
Thu 09:19:42 PM 47.2806 -114.3228 76° East 455 524 41,000  Level Salt Lake Center
Thu 09:20:44 PM 47.3122 -114.1447 75° East 454 522 41,000  Level Salt Lake Center
Thu 09:21:45 PM 47.3431 -113.9656 76° East 455 524 41,000  Level Salt Lake Center
Thu 09:22:47 PM 47.3736 -113.7872 76° East 453 521 41,000  Level Salt Lake Center
Thu 09:23:48 PM 47.4100 -113.5708 76° East 455 524 41,000  Level Salt Lake Center
Thu 09:24:50 PM 47.4406 -113.3894 76° East 460 529 41,000  Level Salt Lake Center
Thu 09:25:51 PM 47.4700 -113.2075 76° East 458 527 41,000  Level Salt Lake Center
Thu 09:26:53 PM 47.5017 -113.0247 76° East 463 533 41,000  Level Salt Lake Center
Thu 09:27:54 PM 47.5311 -112.8278 77° East 463 533 41,000  Level Salt Lake Center
Thu 09:28:56 PM 47.5606 -112.6431 77° East 463 533 41,000  Level Salt Lake Center
Thu 09:29:57 PM 47.5894 -112.4583 77° East 463 533 41,000  Level Salt Lake Center
Thu 09:30:59 PM 47.6192 -112.2736 77° East 462 532 41,000  Level Salt Lake Center
Thu 09:32:00 PM 47.6475 -112.0883 77° East 462 532 41,000  Level Salt Lake Center
Thu 09:33:02 PM 47.6767 -111.9006 77° East 467 537 41,000  Level Salt Lake Center
Thu 09:34:03 PM 47.7053 -111.7128 77° East 466 536 41,000  Level Salt Lake Center
Thu 09:35:05 PM 47.7392 -111.4850 77° East 467 537 41,000  Level Salt Lake Center
Thu 09:36:06 PM 47.7669 -111.2922 78° East 466 536 41,000  Level Salt Lake Center
Thu 09:37:08 PM 47.7956 -111.0989 78° East 470 541 41,000  Level Salt Lake Center
Thu 09:38:09 PM 47.8231 -110.9075 78° East 472 543 41,000  Level Salt Lake Center
Thu 09:39:11 PM 47.8500 -110.7208 78° East 465 535 41,000  Level Salt Lake Center
Thu 09:40:12 PM 47.8764 -110.5347 78° East 461 531 41,000  Level Salt Lake Center
Thu 09:41:14 PM 47.9011 -110.3508 79° East 457 526 41,000  Level Salt Lake Center
Thu 09:42:15 PM 47.9269 -110.1639 78° East 459 528 41,000  Level Salt Lake Center
Thu 09:43:17 PM 47.9528 -109.9747 78° East 464 534 41,000  Level Salt Lake Center
Thu 09:44:18 PM 47.9778 -109.7864 79° East 464 534 41,000  Level Salt Lake Center
Thu 09:45:20 PM 48.0031 -109.5983 79° East 464 534 41,000  Level Salt Lake Center
Thu 09:46:22 PM 48.0317 -109.3703 79° East 467 537 41,000  Level Salt Lake Center
Thu 09:47:23 PM 48.0561 -109.1794 79° East 468 539 41,000  Level Salt Lake Center
Thu 09:48:25 PM 48.0811 -108.9883 79° East 468 539 41,000  Level Salt Lake Center
Thu 09:49:26 PM 48.1022 -108.7947 81° East 471 542 41,000  Level Salt Lake Center
Thu 09:50:28 PM 48.1253 -108.6019 80° East 473 544 41,000  Level Salt Lake Center
Thu 09:51:29 PM 48.1478 -108.4078 80° East 475 547 41,000  Level Salt Lake Center
Thu 09:52:31 PM 48.1728 -108.2153 79° East 473 544 41,000  Level Salt Lake Center
Thu 09:53:33 PM 48.1972 -107.9833 81° East 471 542 41,000  Level Salt Lake Center
Thu 09:54:34 PM 48.2203 -107.7925 80° East 469 540 41,000  Level Salt Lake Center
Thu 09:55:36 PM 48.2414 -107.6025 80° East 465 535 41,000  Level Salt Lake Center
Thu 09:56:37 PM 48.2608 -107.4122 81° East 463 533 41,000  Level Salt Lake Center
Thu 09:57:39 PM 48.2806 -107.2383 80° East 458 527 41,000  Level Salt Lake Center
Thu 09:58:41 PM 48.3058 -107.0139 80° East 456 525 41,000  Level Salt Lake Center
Thu 09:59:42 PM 48.3242 -106.8247 82° East 457 526 41,000  Level Salt Lake Center
Thu 10:00:44 PM 48.3447 -106.6358 81° East 458 527 41,000  Level Salt Lake Center
Thu 10:01:45 PM 48.3653 -106.4456 81° East 460 529 41,000  Level Salt Lake Center
Thu 10:02:47 PM 48.3828 -106.2561 82° East 460 529 41,000  Level Salt Lake Center
Thu 10:03:49 PM 48.4033 -106.0644 81° East 463 533 41,000  Level Salt Lake Center
Thu 10:04:50 PM 48.4219 -105.8733 82° East 462 532 41,000  Level Salt Lake Center
Thu 10:05:52 PM 48.4392 -105.6822 82° East 462 532 41,000  Level Salt Lake Center
Thu 10:06:53 PM 48.4611 -105.4528 82° East 462 532 41,000  Level Salt Lake Center
Thu 10:07:55 PM 48.4803 -105.2600 81° East 463 533 41,000  Level Salt Lake Center
Thu 10:08:57 PM 48.4961 -105.0706 83° East 461 531 41,000  Level Salt Lake Center
Thu 10:09:58 PM 48.5136 -104.8772 82° East 462 532 41,000  Level Salt Lake Center
Thu 10:11:00 PM 48.5292 -104.6878 83° East 460 529 41,000  Level Salt Lake Center
Thu 10:12:01 PM 48.5464 -104.4906 82° East 463 533 41,000  Level Salt Lake Center
Thu 10:13:03 PM 48.5617 -104.3003 83° East 464 534 41,000  Level Salt Lake Center
Thu 10:14:05 PM 48.5767 -104.1078 83° East 462 532 41,000  Level Salt Lake Center
Thu 10:15:06 PM 48.5925 -103.9136 83° East 463 533 41,000  Level Salt Lake Center
Thu 10:16:08 PM 48.6111 -103.6822 83° East 463 533 41,000  Level Salt Lake Center
Thu 10:17:09 PM 48.6250 -103.4894 84° East 462 532 41,000  Level Salt Lake Center
Thu 10:18:11 PM 48.6383 -103.3000 84° East 460 529 41,000  Level Minneapolis Center
Thu 10:19:13 PM 48.6544 -103.1036 83° East 462 532 41,000  Level Salt Lake Center
Thu 10:20:15 PM 48.6675 -102.9089 84° East 463 533 41,000  Level Salt Lake Center
Thu 10:21:15 PM 48.6781 -102.7128 85° East 467 537 41,000  Level Minneapolis Center
Thu 10:22:17 PM 48.6911 -102.5164 84° East 470 541 41,000  Level Minneapolis Center
Thu 10:23:18 PM 48.7031 -102.3217 85° East 467 537 41,000  Level Minneapolis Center
Thu 10:24:20 PM 48.7156 -102.1275 84° East 466 536 41,000  Level Minneapolis Center
Thu 10:25:21 PM 48.7303 -101.8947 84° East 463 533 41,000  Level Minneapolis Center
Thu 10:26:22 PM 48.7408 -101.6992 85° East 466 536 41,000  Level Minneapolis Center
Thu 10:27:24 PM 48.7525 -101.5061 85° East 464 534 41,000  Level Minneapolis Center
Thu 10:28:25 PM 48.7628 -101.3128 85° East 462 532 41,000  Level Minneapolis Center
Thu 10:29:26 PM 48.7728 -101.1356 85° East 462 532 41,000  Level Minneapolis Center
Thu 10:30:28 PM 48.7856 -100.9031 85° East 462 532 41,000  Level Minneapolis Center
Thu 10:31:29 PM 48.7950 -100.7111 86° East 460 529 41,000  Level Minneapolis Center
Thu 10:32:30 PM 48.8044 -100.5194 86° East 458 527 41,000  Level Minneapolis Center
Thu 10:33:32 PM 48.8136 -100.3297 86° East 455 524 41,000  Level Minneapolis Center
Thu 10:34:33 PM 48.8222 -100.1386 86° East 455 524 41,000  Level Minneapolis Center
Thu 10:35:34 PM 48.8314 -99.9486 86° East 454 522 41,000  Level Minneapolis Center
Thu 10:36:36 PM 48.8383 -99.7581 87° East 454 522 41,000  Level Minneapolis Center
Thu 10:37:37 PM 48.8469 -99.5675 86° East 453 521 41,000  Level Minneapolis Center
Thu 10:38:38 PM 48.8547 -99.3769 86° East 454 522 41,000  Level Minneapolis Center
Thu 10:39:39 PM 48.8617 -99.1850 87° East 456 525 41,000  Level Minneapolis Center
Thu 10:40:41 PM 48.8708 -98.9514 86° East 459 528 41,000  Level Minneapolis Center
Thu 10:41:42 PM 48.8778 -98.7567 87° East 461 531 41,000  Level Minneapolis Center
Thu 10:42:43 PM 48.8842 -98.5617 87° East 462 532 41,000  Level Minneapolis Center
Thu 10:43:45 PM 48.8894 -98.3697 88° East 460 529 41,000 -49 Level Minneapolis Center
Thu 10:44:46 PM 48.8953 -98.1769 87° East 459 528 40,900 -934 Descending Minneapolis Center
Thu 10:45:47 PM 48.9006 -97.9861 88° East 457 526 39,100 -1,869 Descending Minneapolis Center
Thu 10:46:48 PM 48.9053 -97.7967 88° East 452 520 37,100 -2,098 Descending Minneapolis Center
Thu 10:47:50 PM 48.9094 -97.6033 88° East 454 522 34,800 -2,634 Descending Minneapolis Center
Thu 10:48:51 PM 48.9144 -97.4028 88° East 468 539 31,700 -3,000 Descending Minneapolis Center
Thu 10:49:52 PM 48.9192 -97.2075 88° East 466 536 28,700 -3,000 Descending Minneapolis Center
Thu 10:50:53 PM 48.9219 -97.0167 89° East 457 526 25,600 -3,317 Descending Minneapolis Center
Thu 10:51:55 PM 48.9267 -96.7758 88° East 469 540 21,900 -3,268 Descending Minneapolis Center
Thu 10:52:56 PM 48.9294 -96.5894 89° East 454 522 18,900 -2,705 Descending Minneapolis Center
Thu 10:53:57 PM 48.9303 -96.4142 90° East 428 493 16,400 -2,459 Descending Minneapolis Center
Thu 10:54:58 PM 48.9339 -96.2547 88° East 395 455 13,900 -2,390 Descending Minneapolis Center
Thu 10:56:00 PM 48.9425 -96.0947 85° East 384 442 11,500 -2,195 Descending Minneapolis Center
Thu 10:57:01 PM 48.9558 -95.9511 82° East 370 426 9,400 -1,869 Descending Minneapolis Center
Thu 10:58:02 PM 48.9683 -95.8383 80° East 319 367 7,700 -1,475 Descending Minneapolis Center
Thu 10:59:03 PM 48.9828 -95.7200 79° East 290 334 6,400 -1,279 Descending Minneapolis Center
Thu 11:01:00 PM 48.9333 -95.3769 90° East  Level FlightAware Approximate

Login

Don't have an account? Register now (free) for customized features, flight alerts, and more!